sensor_id;sensor_type;location;lat;lon;timestamp;P1;durP1;ratioP1;P2;durP2;ratioP2
495;SDS011;39559;48.630;9.162;2023-12-04T00:00:53;16.77;;;9.70;;
495;SDS011;39559;48.630;9.162;2023-12-04T00:03:18;15.83;;;10.43;;
495;SDS011;39559;48.630;9.162;2023-12-04T00:05:43;18.37;;;10.10;;
495;SDS011;39559;48.630;9.162;2023-12-04T00:08:09;16.90;;;10.60;;
495;SDS011;39559;48.630;9.162;2023-12-04T00:10:35;19.52;;;11.02;;
495;SDS011;39559;48.630;9.162;2023-12-04T00:13:01;19.67;;;11.40;;
495;SDS011;39559;48.630;9.162;2023-12-04T00:15:26;19.97;;;11.07;;
495;SDS011;39559;48.630;9.162;2023-12-04T00:17:52;20.93;;;12.20;;
495;SDS011;39559;48.630;9.162;2023-12-04T00:22:31;18.98;;;11.18;;
495;SDS011;39559;48.630;9.162;2023-12-04T00:24:57;16.50;;;10.33;;
495;SDS011;39559;48.630;9.162;2023-12-04T00:27:23;15.83;;;11.90;;
495;SDS011;39559;48.630;9.162;2023-12-04T00:29:55;15.95;;;10.35;;
495;SDS011;39559;48.630;9.162;2023-12-04T00:32:21;19.05;;;12.00;;
495;SDS011;39559;48.630;9.162;2023-12-04T00:34:47;20.77;;;12.40;;
495;SDS011;39559;48.630;9.162;2023-12-04T00:37:12;15.73;;;10.00;;
495;SDS011;39559;48.630;9.162;2023-12-04T00:39:37;16.17;;;11.00;;
495;SDS011;39559;48.630;9.162;2023-12-04T00:42:03;12.67;;;10.13;;
495;SDS011;39559;48.630;9.162;2023-12-04T00:46:36;15.05;;;9.70;;
495;SDS011;39559;48.630;9.162;2023-12-04T00:49:01;15.73;;;11.03;;
495;SDS011;39559;48.630;9.162;2023-12-04T00:51:27;17.87;;;11.57;;
495;SDS011;39559;48.630;9.162;2023-12-04T00:53:52;13.60;;;9.77;;
495;SDS011;39559;48.630;9.162;2023-12-04T00:56:18;15.18;;;11.70;;
495;SDS011;39559;48.630;9.162;2023-12-04T00:58:45;16.75;;;11.63;;
495;SDS011;39559;48.630;9.162;2023-12-04T01:01:11;20.00;;;11.97;;
495;SDS011;39559;48.630;9.162;2023-12-04T01:03:37;14.33;;;11.83;;
495;SDS011;39559;48.630;9.162;2023-12-04T01:06:03;18.33;;;11.13;;
495;SDS011;39559;48.630;9.162;2023-12-04T01:10:40;12.10;;;10.30;;
495;SDS011;39559;48.630;9.162;2023-12-04T01:13:06;14.87;;;9.73;;
495;SDS011;39559;48.630;9.162;2023-12-04T01:15:31;18.97;;;12.77;;
495;SDS011;39559;48.630;9.162;2023-12-04T01:17:58;16.90;;;10.35;;
495;SDS011;39559;48.630;9.162;2023-12-04T01:20:25;19.15;;;12.10;;
495;SDS011;39559;48.630;9.162;2023-12-04T01:22:51;20.30;;;13.00;;
495;SDS011;39559;48.630;9.162;2023-12-04T01:25:17;18.10;;;11.73;;
495;SDS011;39559;48.630;9.162;2023-12-04T01:27:42;18.47;;;10.17;;
495;SDS011;39559;48.630;9.162;2023-12-04T01:30:08;14.37;;;11.73;;
495;SDS011;39559;48.630;9.162;2023-12-04T01:34:48;18.33;;;12.00;;
495;SDS011;39559;48.630;9.162;2023-12-04T01:37:14;14.93;;;11.63;;
495;SDS011;39559;48.630;9.162;2023-12-04T01:39:39;18.60;;;11.90;;
495;SDS011;39559;48.630;9.162;2023-12-04T01:42:04;19.40;;;11.63;;
495;SDS011;39559;48.630;9.162;2023-12-04T01:44:30;18.30;;;10.10;;
495;SDS011;39559;48.630;9.162;2023-12-04T01:46:55;18.10;;;11.63;;
495;SDS011;39559;48.630;9.162;2023-12-04T01:49:21;20.00;;;11.73;;
495;SDS011;39559;48.630;9.162;2023-12-04T01:51:47;15.93;;;11.93;;
495;SDS011;39559;48.630;9.162;2023-12-04T01:54:13;17.27;;;12.98;;
495;SDS011;39559;48.630;9.162;2023-12-04T01:58:49;18.38;;;13.13;;
495;SDS011;39559;48.630;9.162;2023-12-04T02:01:15;17.10;;;11.80;;
495;SDS011;39559;48.630;9.162;2023-12-04T02:03:42;15.70;;;11.07;;
495;SDS011;39559;48.630;9.162;2023-12-04T02:06:08;22.13;;;13.37;;
495;SDS011;39559;48.630;9.162;2023-12-04T02:08:34;16.60;;;12.95;;
495;SDS011;39559;48.630;9.162;2023-12-04T02:11:00;20.73;;;11.55;;
495;SDS011;39559;48.630;9.162;2023-12-04T02:13:26;21.30;;;12.93;;
495;SDS011;39559;48.630;9.162;2023-12-04T02:15:53;19.25;;;12.13;;
495;SDS011;39559;48.630;9.162;2023-12-04T02:18:20;18.58;;;11.80;;
495;SDS011;39559;48.630;9.162;2023-12-04T02:22:54;21.08;;;12.05;;
495;SDS011;39559;48.630;9.162;2023-12-04T02:25:20;17.10;;;11.37;;
495;SDS011;39559;48.630;9.162;2023-12-04T02:27:52;15.17;;;11.67;;
495;SDS011;39559;48.630;9.162;2023-12-04T02:30:19;16.40;;;11.15;;
495;SDS011;39559;48.630;9.162;2023-12-04T02:32:48;16.55;;;10.95;;
495;SDS011;39559;48.630;9.162;2023-12-04T02:35:16;16.95;;;11.05;;
495;SDS011;39559;48.630;9.162;2023-12-04T02:37:46;21.15;;;13.45;;
495;SDS011;39559;48.630;9.162;2023-12-04T02:40:12;20.52;;;11.75;;
495;SDS011;39559;48.630;9.162;2023-12-04T02:42:39;16.52;;;12.20;;
495;SDS011;39559;48.630;9.162;2023-12-04T02:46:59;15.30;;;10.95;;
495;SDS011;39559;48.630;9.162;2023-12-04T02:49:25;16.00;;;11.30;;
495;SDS011;39559;48.630;9.162;2023-12-04T02:51:50;19.37;;;10.97;;
495;SDS011;39559;48.630;9.162;2023-12-04T02:54:16;21.63;;;13.17;;
495;SDS011;39559;48.630;9.162;2023-12-04T02:56:41;14.63;;;10.17;;
495;SDS011;39559;48.630;9.162;2023-12-04T02:59:07;17.83;;;12.43;;
495;SDS011;39559;48.630;9.162;2023-12-04T03:01:32;16.70;;;10.23;;
495;SDS011;39559;48.630;9.162;2023-12-04T03:03:58;17.80;;;12.87;;
495;SDS011;39559;48.630;9.162;2023-12-04T03:06:23;16.83;;;10.73;;
495;SDS011;39559;48.630;9.162;2023-12-04T03:11:04;18.55;;;11.05;;
495;SDS011;39559;48.630;9.162;2023-12-04T03:13:29;15.40;;;10.50;;
495;SDS011;39559;48.630;9.162;2023-12-04T03:15:55;14.13;;;10.07;;
495;SDS011;39559;48.630;9.162;2023-12-04T03:18:20;19.23;;;12.00;;
495;SDS011;39559;48.630;9.162;2023-12-04T03:20:48;17.27;;;10.75;;
495;SDS011;39559;48.630;9.162;2023-12-04T03:23:14;19.10;;;12.00;;
495;SDS011;39559;48.630;9.162;2023-12-04T03:25:39;18.20;;;11.70;;
495;SDS011;39559;48.630;9.162;2023-12-04T03:28:05;15.40;;;10.50;;
495;SDS011;39559;48.630;9.162;2023-12-04T03:30:30;18.77;;;12.90;;
495;SDS011;39559;48.630;9.162;2023-12-04T03:35:08;18.48;;;10.85;;
495;SDS011;39559;48.630;9.162;2023-12-04T03:37:34;20.93;;;12.40;;
495;SDS011;39559;48.630;9.162;2023-12-04T03:39:59;16.13;;;11.20;;
495;SDS011;39559;48.630;9.162;2023-12-04T03:42:25;18.47;;;11.83;;
495;SDS011;39559;48.630;9.162;2023-12-04T03:44:50;19.50;;;12.07;;
495;SDS011;39559;48.630;9.162;2023-12-04T03:47:16;18.43;;;11.50;;
495;SDS011;39559;48.630;9.162;2023-12-04T03:49:41;17.70;;;10.90;;
495;SDS011;39559;48.630;9.162;2023-12-04T03:52:07;15.70;;;10.53;;
495;SDS011;39559;48.630;9.162;2023-12-04T03:54:32;17.17;;;10.90;;
495;SDS011;39559;48.630;9.162;2023-12-04T03:59:13;18.83;;;11.77;;
495;SDS011;39559;48.630;9.162;2023-12-04T04:01:39;20.23;;;12.00;;
495;SDS011;39559;48.630;9.162;2023-12-04T04:04:04;21.70;;;12.47;;
495;SDS011;39559;48.630;9.162;2023-12-04T04:06:30;18.43;;;11.30;;
495;SDS011;39559;48.630;9.162;2023-12-04T04:08:55;19.37;;;13.20;;
495;SDS011;39559;48.630;9.162;2023-12-04T04:11:21;18.53;;;11.97;;
495;SDS011;39559;48.630;9.162;2023-12-04T04:13:46;23.80;;;13.37;;
495;SDS011;39559;48.630;9.162;2023-12-04T04:16:14;17.57;;;10.80;;
495;SDS011;39559;48.630;9.162;2023-12-04T04:18:41;20.10;;;12.25;;
495;SDS011;39559;48.630;9.162;2023-12-04T04:23:18;24.48;;;13.13;;
495;SDS011;39559;48.630;9.162;2023-12-04T04:25:43;17.43;;;12.20;;
495;SDS011;39559;48.630;9.162;2023-12-04T04:28:09;16.53;;;10.60;;
495;SDS011;39559;48.630;9.162;2023-12-04T04:30:35;20.10;;;12.60;;
495;SDS011;39559;48.630;9.162;2023-12-04T04:33:00;16.30;;;12.57;;
495;SDS011;39559;48.630;9.162;2023-12-04T04:35:26;20.07;;;12.83;;
495;SDS011;39559;48.630;9.162;2023-12-04T04:37:51;21.33;;;12.87;;
495;SDS011;39559;48.630;9.162;2023-12-04T04:40:17;18.27;;;12.13;;
495;SDS011;39559;48.630;9.162;2023-12-04T04:42:42;21.50;;;11.47;;
495;SDS011;39559;48.630;9.162;2023-12-04T04:47:23;14.50;;;10.98;;
495;SDS011;39559;48.630;9.162;2023-12-04T04:49:48;19.00;;;11.50;;
495;SDS011;39559;48.630;9.162;2023-12-04T04:52:14;17.37;;;11.33;;
495;SDS011;39559;48.630;9.162;2023-12-04T04:54:39;22.10;;;14.63;;
495;SDS011;39559;48.630;9.162;2023-12-04T04:57:05;19.90;;;13.00;;
495;SDS011;39559;48.630;9.162;2023-12-04T04:59:30;20.50;;;12.23;;
495;SDS011;39559;48.630;9.162;2023-12-04T05:01:57;17.88;;;11.63;;
495;SDS011;39559;48.630;9.162;2023-12-04T05:04:23;21.40;;;13.00;;
495;SDS011;39559;48.630;9.162;2023-12-04T05:06:48;16.13;;;11.83;;
495;SDS011;39559;48.630;9.162;2023-12-04T05:11:28;14.75;;;12.30;;
495;SDS011;39559;48.630;9.162;2023-12-04T05:13:53;18.93;;;11.00;;
495;SDS011;39559;48.630;9.162;2023-12-04T05:16:19;19.83;;;12.27;;
495;SDS011;39559;48.630;9.162;2023-12-04T05:18:44;21.10;;;11.90;;
495;SDS011;39559;48.630;9.162;2023-12-04T05:21:10;19.20;;;13.20;;
495;SDS011;39559;48.630;9.162;2023-12-04T05:23:36;21.25;;;13.18;;
495;SDS011;39559;48.630;9.162;2023-12-04T05:26:02;18.98;;;11.43;;
495;SDS011;39559;48.630;9.162;2023-12-04T05:28:28;19.48;;;12.18;;
495;SDS011;39559;48.630;9.162;2023-12-04T05:30:54;20.20;;;13.23;;
495;SDS011;39559;48.630;9.162;2023-12-04T05:35:33;18.25;;;12.63;;
495;SDS011;39559;48.630;9.162;2023-12-04T05:38:00;19.95;;;13.48;;
495;SDS011;39559;48.630;9.162;2023-12-04T05:40:26;21.27;;;12.63;;
495;SDS011;39559;48.630;9.162;2023-12-04T05:42:51;20.50;;;12.90;;
495;SDS011;39559;48.630;9.162;2023-12-04T05:45:17;20.73;;;13.27;;
495;SDS011;39559;48.630;9.162;2023-12-04T05:47:42;18.27;;;12.10;;
495;SDS011;39559;48.630;9.162;2023-12-04T05:50:08;17.40;;;12.50;;
495;SDS011;39559;48.630;9.162;2023-12-04T05:52:34;17.75;;;12.25;;
495;SDS011;39559;48.630;9.162;2023-12-04T05:54:59;22.07;;;12.60;;
495;SDS011;39559;48.630;9.162;2023-12-04T05:59:37;18.52;;;10.38;;
495;SDS011;39559;48.630;9.162;2023-12-04T06:02:03;22.43;;;12.47;;
495;SDS011;39559;48.630;9.162;2023-12-04T06:04:29;23.33;;;13.30;;
495;SDS011;39559;48.630;9.162;2023-12-04T06:06:54;22.37;;;15.00;;
495;SDS011;39559;48.630;9.162;2023-12-04T06:09:20;21.83;;;14.23;;
495;SDS011;39559;48.630;9.162;2023-12-04T06:11:45;18.13;;;12.23;;
495;SDS011;39559;48.630;9.162;2023-12-04T06:14:10;21.67;;;13.10;;
495;SDS011;39559;48.630;9.162;2023-12-04T06:16:36;21.67;;;14.27;;
495;SDS011;39559;48.630;9.162;2023-12-04T06:19:02;22.42;;;13.75;;
495;SDS011;39559;48.630;9.162;2023-12-04T06:23:43;20.52;;;14.38;;
495;SDS011;39559;48.630;9.162;2023-12-04T06:26:10;23.65;;;13.57;;
495;SDS011;39559;48.630;9.162;2023-12-04T06:28:37;20.77;;;14.60;;
495;SDS011;39559;48.630;9.162;2023-12-04T06:31:04;26.45;;;14.68;;
495;SDS011;39559;48.630;9.162;2023-12-04T06:33:30;22.48;;;14.82;;
495;SDS011;39559;48.630;9.162;2023-12-04T06:35:56;22.07;;;13.53;;
495;SDS011;39559;48.630;9.162;2023-12-04T06:38:23;21.20;;;14.03;;
495;SDS011;39559;48.630;9.162;2023-12-04T06:40:50;22.33;;;14.35;;
495;SDS011;39559;48.630;9.162;2023-12-04T06:43:16;19.13;;;13.10;;
495;SDS011;39559;48.630;9.162;2023-12-04T06:47:48;18.40;;;11.85;;
495;SDS011;39559;48.630;9.162;2023-12-04T06:50:15;19.48;;;12.80;;
495;SDS011;39559;48.630;9.162;2023-12-04T06:52:41;21.60;;;12.55;;
495;SDS011;39559;48.630;9.162;2023-12-04T06:55:07;22.13;;;13.40;;
495;SDS011;39559;48.630;9.162;2023-12-04T06:57:34;17.85;;;11.95;;
495;SDS011;39559;48.630;9.162;2023-12-04T06:59:59;21.80;;;15.27;;
495;SDS011;39559;48.630;9.162;2023-12-04T07:02:25;21.80;;;14.60;;
495;SDS011;39559;48.630;9.162;2023-12-04T07:04:51;19.60;;;12.97;;
495;SDS011;39559;48.630;9.162;2023-12-04T07:07:16;22.13;;;14.40;;
495;SDS011;39559;48.630;9.162;2023-12-04T07:11:53;21.13;;;14.13;;
495;SDS011;39559;48.630;9.162;2023-12-04T07:14:19;19.98;;;13.68;;
495;SDS011;39559;48.630;9.162;2023-12-04T07:16:45;22.00;;;15.20;;
495;SDS011;39559;48.630;9.162;2023-12-04T07:19:10;22.87;;;15.40;;
495;SDS011;39559;48.630;9.162;2023-12-04T07:21:36;22.87;;;15.60;;
495;SDS011;39559;48.630;9.162;2023-12-04T07:24:02;22.92;;;14.75;;
495;SDS011;39559;48.630;9.162;2023-12-04T07:26:28;21.00;;;13.25;;
495;SDS011;39559;48.630;9.162;2023-12-04T07:28:56;20.65;;;14.05;;
495;SDS011;39559;48.630;9.162;2023-12-04T07:31:21;26.83;;;15.37;;
495;SDS011;39559;48.630;9.162;2023-12-04T07:35:58;21.40;;;13.25;;
495;SDS011;39559;48.630;9.162;2023-12-04T07:38:23;25.30;;;16.07;;
495;SDS011;39559;48.630;9.162;2023-12-04T07:40:49;22.70;;;15.00;;
495;SDS011;39559;48.630;9.162;2023-12-04T07:43:14;24.37;;;13.80;;
495;SDS011;39559;48.630;9.162;2023-12-04T07:45:41;21.47;;;14.47;;
495;SDS011;39559;48.630;9.162;2023-12-04T07:48:06;22.77;;;15.10;;
495;SDS011;39559;48.630;9.162;2023-12-04T07:50:32;20.07;;;14.40;;
495;SDS011;39559;48.630;9.162;2023-12-04T07:52:57;21.33;;;14.23;;
495;SDS011;39559;48.630;9.162;2023-12-04T07:55:23;22.87;;;14.47;;
495;SDS011;39559;48.630;9.162;2023-12-04T08:00:03;22.85;;;12.60;;
495;SDS011;39559;48.630;9.162;2023-12-04T08:02:29;17.73;;;14.13;;
495;SDS011;39559;48.630;9.162;2023-12-04T08:04:54;21.57;;;13.90;;
495;SDS011;39559;48.630;9.162;2023-12-04T08:07:20;30.17;;;20.57;;
495;SDS011;39559;48.630;9.162;2023-12-04T08:09:45;38.07;;;21.33;;
495;SDS011;39559;48.630;9.162;2023-12-04T08:12:11;36.23;;;22.17;;
495;SDS011;39559;48.630;9.162;2023-12-04T08:14:36;34.67;;;23.07;;
495;SDS011;39559;48.630;9.162;2023-12-04T08:17:02;28.80;;;20.20;;
495;SDS011;39559;48.630;9.162;2023-12-04T08:19:28;32.37;;;20.87;;
495;SDS011;39559;48.630;9.162;2023-12-04T08:24:08;43.30;;;25.15;;
495;SDS011;39559;48.630;9.162;2023-12-04T08:26:33;37.50;;;23.93;;
495;SDS011;39559;48.630;9.162;2023-12-04T08:28:59;33.07;;;23.60;;
495;SDS011;39559;48.630;9.162;2023-12-04T08:31:24;37.90;;;21.33;;
495;SDS011;39559;48.630;9.162;2023-12-04T08:33:50;32.60;;;20.20;;
495;SDS011;39559;48.630;9.162;2023-12-04T08:36:15;33.63;;;21.40;;
495;SDS011;39559;48.630;9.162;2023-12-04T08:38:41;31.40;;;19.57;;
495;SDS011;39559;48.630;9.162;2023-12-04T08:41:07;26.33;;;17.13;;
495;SDS011;39559;48.630;9.162;2023-12-04T08:43:32;25.43;;;17.97;;
495;SDS011;39559;48.630;9.162;2023-12-04T08:48:13;24.25;;;16.20;;
495;SDS011;39559;48.630;9.162;2023-12-04T08:50:38;28.40;;;18.23;;
495;SDS011;39559;48.630;9.162;2023-12-04T08:53:04;23.00;;;16.33;;
495;SDS011;39559;48.630;9.162;2023-12-04T08:55:30;26.07;;;17.50;;
495;SDS011;39559;48.630;9.162;2023-12-04T08:57:55;25.03;;;16.93;;
495;SDS011;39559;48.630;9.162;2023-12-04T09:00:21;24.87;;;17.03;;
495;SDS011;39559;48.630;9.162;2023-12-04T09:02:49;22.60;;;16.30;;
495;SDS011;39559;48.630;9.162;2023-12-04T09:05:15;26.90;;;15.65;;
495;SDS011;39559;48.630;9.162;2023-12-04T09:07:41;26.77;;;18.17;;
495;SDS011;39559;48.630;9.162;2023-12-04T09:12:18;21.85;;;14.95;;
495;SDS011;39559;48.630;9.162;2023-12-04T09:14:43;22.20;;;15.83;;
495;SDS011;39559;48.630;9.162;2023-12-04T09:17:09;22.70;;;17.47;;
495;SDS011;39559;48.630;9.162;2023-12-04T09:19:35;27.65;;;17.73;;
495;SDS011;39559;48.630;9.162;2023-12-04T09:22:01;31.17;;;17.65;;
495;SDS011;39559;48.630;9.162;2023-12-04T09:24:27;25.27;;;17.20;;
495;SDS011;39559;48.630;9.162;2023-12-04T09:26:53;26.40;;;18.17;;
495;SDS011;39559;48.630;9.162;2023-12-04T09:29:20;23.77;;;17.30;;
495;SDS011;39559;48.630;9.162;2023-12-04T09:31:50;20.60;;;14.68;;
495;SDS011;39559;48.630;9.162;2023-12-04T09:36:22;35.55;;;22.80;;
495;SDS011;39559;48.630;9.162;2023-12-04T09:38:48;31.07;;;20.60;;
495;SDS011;39559;48.630;9.162;2023-12-04T09:41:13;27.60;;;20.33;;
495;SDS011;39559;48.630;9.162;2023-12-04T09:43:41;36.33;;;23.67;;
495;SDS011;39559;48.630;9.162;2023-12-04T09:46:08;43.08;;;26.25;;
495;SDS011;39559;48.630;9.162;2023-12-04T09:48:35;30.00;;;21.70;;
495;SDS011;39559;48.630;9.162;2023-12-04T09:51:03;30.38;;;21.88;;
495;SDS011;39559;48.630;9.162;2023-12-04T09:53:28;40.97;;;26.00;;
495;SDS011;39559;48.630;9.162;2023-12-04T09:55:56;39.65;;;24.52;;
495;SDS011;39559;48.630;9.162;2023-12-04T10:00:25;27.47;;;18.60;;
495;SDS011;39559;48.630;9.162;2023-12-04T10:02:52;26.65;;;18.83;;
495;SDS011;39559;48.630;9.162;2023-12-04T10:05:18;28.23;;;18.00;;
495;SDS011;39559;48.630;9.162;2023-12-04T10:07:44;33.10;;;21.37;;
495;SDS011;39559;48.630;9.162;2023-12-04T10:10:10;37.57;;;23.90;;
495;SDS011;39559;48.630;9.162;2023-12-04T10:12:36;32.57;;;20.43;;
495;SDS011;39559;48.630;9.162;2023-12-04T10:15:06;32.38;;;20.42;;
495;SDS011;39559;48.630;9.162;2023-12-04T10:17:36;28.33;;;18.73;;
495;SDS011;39559;48.630;9.162;2023-12-04T10:20:08;24.60;;;19.45;;
495;SDS011;39559;48.630;9.162;2023-12-04T10:24:33;25.38;;;18.90;;
495;SDS011;39559;48.630;9.162;2023-12-04T10:27:00;26.90;;;18.60;;
495;SDS011;39559;48.630;9.162;2023-12-04T10:29:28;28.23;;;18.52;;
495;SDS011;39559;48.630;9.162;2023-12-04T10:31:57;29.20;;;18.25;;
495;SDS011;39559;48.630;9.162;2023-12-04T10:34:25;25.33;;;18.60;;
495;SDS011;39559;48.630;9.162;2023-12-04T10:36:51;27.48;;;20.45;;
495;SDS011;39559;48.630;9.162;2023-12-04T10:39:17;25.58;;;19.15;;
495;SDS011;39559;48.630;9.162;2023-12-04T10:41:43;36.27;;;20.87;;
495;SDS011;39559;48.630;9.162;2023-12-04T10:44:09;26.48;;;18.63;;
495;SDS011;39559;48.630;9.162;2023-12-04T10:48:36;28.92;;;18.00;;
495;SDS011;39559;48.630;9.162;2023-12-04T10:51:03;26.48;;;17.33;;
495;SDS011;39559;48.630;9.162;2023-12-04T10:53:30;23.13;;;16.42;;
495;SDS011;39559;48.630;9.162;2023-12-04T10:55:56;23.87;;;17.47;;
495;SDS011;39559;48.630;9.162;2023-12-04T10:58:25;22.00;;;15.73;;
495;SDS011;39559;48.630;9.162;2023-12-04T11:00:52;23.08;;;15.75;;
495;SDS011;39559;48.630;9.162;2023-12-04T11:03:25;23.08;;;15.30;;
495;SDS011;39559;48.630;9.162;2023-12-04T11:06:01;22.52;;;15.73;;
495;SDS011;39559;48.630;9.162;2023-12-04T11:08:29;26.02;;;16.27;;
495;SDS011;39559;48.630;9.162;2023-12-04T11:12:43;22.52;;;15.57;;
495;SDS011;39559;48.630;9.162;2023-12-04T11:15:10;19.55;;;14.65;;
495;SDS011;39559;48.630;9.162;2023-12-04T11:17:42;20.92;;;14.88;;
495;SDS011;39559;48.630;9.162;2023-12-04T11:20:12;23.50;;;14.70;;
495;SDS011;39559;48.630;9.162;2023-12-04T11:22:42;22.08;;;14.70;;
495;SDS011;39559;48.630;9.162;2023-12-04T11:25:10;19.70;;;13.98;;
495;SDS011;39559;48.630;9.162;2023-12-04T11:27:38;24.50;;;14.85;;
495;SDS011;39559;48.630;9.162;2023-12-04T11:30:06;21.67;;;15.60;;
495;SDS011;39559;48.630;9.162;2023-12-04T11:32:37;23.52;;;16.85;;
495;SDS011;39559;48.630;9.162;2023-12-04T11:36:45;21.17;;;15.60;;
495;SDS011;39559;48.630;9.162;2023-12-04T11:39:11;24.43;;;15.00;;
495;SDS011;39559;48.630;9.162;2023-12-04T11:41:37;22.67;;;16.20;;
495;SDS011;39559;48.630;9.162;2023-12-04T11:44:03;23.30;;;16.33;;
495;SDS011;39559;48.630;9.162;2023-12-04T11:46:36;20.33;;;14.77;;
495;SDS011;39559;48.630;9.162;2023-12-04T11:51:51;24.02;;;15.70;;
495;SDS011;39559;48.630;9.162;2023-12-04T11:54:18;19.58;;;13.63;;
495;SDS011;39559;48.630;9.162;2023-12-04T11:56:57;19.88;;;14.10;;
495;SDS011;39559;48.630;9.162;2023-12-04T12:00:49;22.20;;;14.77;;
495;SDS011;39559;48.630;9.162;2023-12-04T12:03:17;20.10;;;14.10;;
495;SDS011;39559;48.630;9.162;2023-12-04T12:05:43;20.07;;;13.97;;
495;SDS011;39559;48.630;9.162;2023-12-04T12:08:09;21.50;;;15.15;;
495;SDS011;39559;48.630;9.162;2023-12-04T12:10:35;20.15;;;13.15;;
495;SDS011;39559;48.630;9.162;2023-12-04T12:13:01;19.90;;;14.27;;
495;SDS011;39559;48.630;9.162;2023-12-04T12:15:27;16.23;;;12.93;;
495;SDS011;39559;48.630;9.162;2023-12-04T12:17:53;19.30;;;12.32;;
495;SDS011;39559;48.630;9.162;2023-12-04T12:20:18;19.60;;;13.87;;
495;SDS011;39559;48.630;9.162;2023-12-04T12:24:57;19.85;;;12.30;;
495;SDS011;39559;48.630;9.162;2023-12-04T12:27:24;19.20;;;12.65;;
495;SDS011;39559;48.630;9.162;2023-12-04T12:29:51;18.67;;;12.43;;
495;SDS011;39559;48.630;9.162;2023-12-04T12:32:18;15.52;;;11.10;;
495;SDS011;39559;48.630;9.162;2023-12-04T12:34:44;19.75;;;11.80;;
495;SDS011;39559;48.630;9.162;2023-12-04T12:37:10;20.77;;;12.63;;
495;SDS011;39559;48.630;9.162;2023-12-04T12:39:37;18.15;;;12.32;;
495;SDS011;39559;48.630;9.162;2023-12-04T12:42:03;17.42;;;12.27;;
495;SDS011;39559;48.630;9.162;2023-12-04T12:44:40;19.38;;;12.82;;
495;SDS011;39559;48.630;9.162;2023-12-04T12:48:57;14.50;;;11.48;;
495;SDS011;39559;48.630;9.162;2023-12-04T12:51:23;15.03;;;11.73;;
495;SDS011;39559;48.630;9.162;2023-12-04T12:53:49;18.47;;;12.10;;
495;SDS011;39559;48.630;9.162;2023-12-04T12:56:14;15.17;;;11.40;;
495;SDS011;39559;48.630;9.162;2023-12-04T12:58:41;16.90;;;12.93;;
495;SDS011;39559;48.630;9.162;2023-12-04T13:01:09;17.88;;;13.35;;
495;SDS011;39559;48.630;9.162;2023-12-04T13:03:36;14.68;;;11.70;;
495;SDS011;39559;48.630;9.162;2023-12-04T13:06:03;17.08;;;11.82;;
495;SDS011;39559;48.630;9.162;2023-12-04T13:08:29;17.27;;;11.63;;
495;SDS011;39559;48.630;9.162;2023-12-04T13:13:02;17.90;;;12.50;;
495;SDS011;39559;48.630;9.162;2023-12-04T13:15:29;16.77;;;12.30;;
495;SDS011;39559;48.630;9.162;2023-12-04T13:17:54;18.00;;;12.60;;
495;SDS011;39559;48.630;9.162;2023-12-04T13:20:21;18.38;;;12.70;;
495;SDS011;39559;48.630;9.162;2023-12-04T13:22:48;17.05;;;12.13;;
495;SDS011;39559;48.630;9.162;2023-12-04T13:25:14;20.13;;;11.80;;
495;SDS011;39559;48.630;9.162;2023-12-04T13:27:40;15.80;;;12.50;;
495;SDS011;39559;48.630;9.162;2023-12-04T13:30:06;18.30;;;12.70;;
495;SDS011;39559;48.630;9.162;2023-12-04T13:32:36;19.35;;;12.93;;
495;SDS011;39559;48.630;9.162;2023-12-04T13:37:04;19.02;;;14.60;;
495;SDS011;39559;48.630;9.162;2023-12-04T13:39:30;23.03;;;14.43;;
495;SDS011;39559;48.630;9.162;2023-12-04T13:42:15;18.73;;;12.65;;
495;SDS011;39559;48.630;9.162;2023-12-04T13:44:59;19.10;;;13.35;;
495;SDS011;39559;48.630;9.162;2023-12-04T13:47:26;21.85;;;15.60;;
495;SDS011;39559;48.630;9.162;2023-12-04T13:49:52;23.93;;;15.50;;
495;SDS011;39559;48.630;9.162;2023-12-04T13:52:17;19.40;;;15.57;;
495;SDS011;39559;48.630;9.162;2023-12-04T13:54:47;22.45;;;15.00;;
495;SDS011;39559;48.630;9.162;2023-12-04T13:57:14;21.30;;;15.00;;
495;SDS011;39559;48.630;9.162;2023-12-04T14:01:09;20.08;;;14.73;;
495;SDS011;39559;48.630;9.162;2023-12-04T14:03:42;23.85;;;14.98;;
495;SDS011;39559;48.630;9.162;2023-12-04T14:06:09;23.10;;;14.98;;
495;SDS011;39559;48.630;9.162;2023-12-04T14:08:35;22.77;;;15.15;;
495;SDS011;39559;48.630;9.162;2023-12-04T14:11:02;21.77;;;14.90;;
495;SDS011;39559;48.630;9.162;2023-12-04T14:13:28;26.23;;;15.55;;
495;SDS011;39559;48.630;9.162;2023-12-04T14:15:53;22.53;;;15.37;;
495;SDS011;39559;48.630;9.162;2023-12-04T14:18:19;21.58;;;15.20;;
495;SDS011;39559;48.630;9.162;2023-12-04T14:20:45;20.10;;;15.50;;
495;SDS011;39559;48.630;9.162;2023-12-04T14:25:12;22.65;;;15.50;;
495;SDS011;39559;48.630;9.162;2023-12-04T14:27:38;23.43;;;15.83;;
495;SDS011;39559;48.630;9.162;2023-12-04T14:30:06;20.70;;;15.25;;
495;SDS011;39559;48.630;9.162;2023-12-04T14:32:34;21.35;;;15.15;;
495;SDS011;39559;48.630;9.162;2023-12-04T14:35:00;23.65;;;16.20;;
495;SDS011;39559;48.630;9.162;2023-12-04T14:37:26;25.07;;;15.83;;
495;SDS011;39559;48.630;9.162;2023-12-04T14:39:51;24.73;;;16.20;;
495;SDS011;39559;48.630;9.162;2023-12-04T14:42:17;26.10;;;16.57;;
495;SDS011;39559;48.630;9.162;2023-12-04T14:44:42;22.40;;;14.97;;
495;SDS011;39559;48.630;9.162;2023-12-04T14:49:16;23.60;;;16.42;;
495;SDS011;39559;48.630;9.162;2023-12-04T14:51:41;25.93;;;16.97;;
495;SDS011;39559;48.630;9.162;2023-12-04T14:54:12;25.73;;;17.67;;
495;SDS011;39559;48.630;9.162;2023-12-04T14:56:40;22.23;;;16.30;;
495;SDS011;39559;48.630;9.162;2023-12-04T14:59:29;23.67;;;15.00;;
495;SDS011;39559;48.630;9.162;2023-12-04T15:02:01;18.25;;;14.90;;
495;SDS011;39559;48.630;9.162;2023-12-04T15:04:44;21.65;;;15.60;;
495;SDS011;39559;48.630;9.162;2023-12-04T15:07:28;27.25;;;18.33;;
495;SDS011;39559;48.630;9.162;2023-12-04T15:10:00;24.27;;;16.85;;
495;SDS011;39559;48.630;9.162;2023-12-04T15:13:19;22.77;;;16.65;;
495;SDS011;39559;48.630;9.162;2023-12-04T15:16:06;20.85;;;16.27;;
495;SDS011;39559;48.630;9.162;2023-12-04T15:18:38;25.65;;;16.08;;
495;SDS011;39559;48.630;9.162;2023-12-04T15:21:04;23.17;;;16.73;;
495;SDS011;39559;48.630;9.162;2023-12-04T15:23:30;24.13;;;16.70;;
495;SDS011;39559;48.630;9.162;2023-12-04T15:25:55;19.67;;;15.23;;
495;SDS011;39559;48.630;9.162;2023-12-04T15:28:21;25.30;;;16.80;;
495;SDS011;39559;48.630;9.162;2023-12-04T15:30:47;18.80;;;15.60;;
495;SDS011;39559;48.630;9.162;2023-12-04T15:33:13;22.93;;;15.80;;
495;SDS011;39559;48.630;9.162;2023-12-04T15:37:22;25.63;;;17.25;;
495;SDS011;39559;48.630;9.162;2023-12-04T15:39:48;24.30;;;16.70;;
495;SDS011;39559;48.630;9.162;2023-12-04T15:42:13;23.07;;;16.07;;
495;SDS011;39559;48.630;9.162;2023-12-04T15:44:39;21.65;;;16.60;;
495;SDS011;39559;48.630;9.162;2023-12-04T15:47:05;22.33;;;16.37;;
495;SDS011;39559;48.630;9.162;2023-12-04T15:49:30;29.50;;;18.73;;
495;SDS011;39559;48.630;9.162;2023-12-04T15:51:56;21.33;;;16.40;;
495;SDS011;39559;48.630;9.162;2023-12-04T15:54:21;22.87;;;16.17;;
495;SDS011;39559;48.630;9.162;2023-12-04T15:56:46;23.60;;;17.03;;
495;SDS011;39559;48.630;9.162;2023-12-04T16:01:25;22.75;;;15.88;;
495;SDS011;39559;48.630;9.162;2023-12-04T16:03:51;28.10;;;17.80;;
495;SDS011;39559;48.630;9.162;2023-12-04T16:06:16;28.60;;;19.30;;
495;SDS011;39559;48.630;9.162;2023-12-04T16:08:42;28.13;;;18.90;;